createdAt,value
2023-05-10T00:04:25.028Z,963.82
2023-05-10T00:14:25.271Z,963.74
2023-05-10T00:24:25.589Z,963.82
2023-05-10T00:34:25.569Z,963.77
2023-05-10T00:44:25.712Z,963.76
2023-05-10T00:54:25.934Z,963.84
2023-05-10T01:04:26.134Z,963.96
2023-05-10T01:14:26.232Z,964.08
2023-05-10T01:24:26.379Z,964.25
2023-05-10T01:34:26.599Z,964.26
2023-05-10T01:44:26.796Z,964.38
2023-05-10T01:54:27.020Z,964.55
2023-05-10T02:04:27.184Z,964.63
2023-05-10T02:14:27.403Z,964.68
2023-05-10T02:24:27.585Z,964.82
2023-05-10T02:34:27.801Z,964.89
2023-05-10T02:44:28.274Z,964.89
2023-05-10T02:54:28.151Z,964.90
2023-05-10T03:04:28.350Z,964.98
2023-05-10T03:14:32.948Z,964.91
2023-05-10T03:24:28.537Z,964.90
2023-05-10T03:34:28.726Z,964.95
2023-05-10T03:44:28.895Z,965.12
2023-05-10T03:54:29.443Z,965.18
2023-05-10T04:04:29.248Z,965.20
2023-05-10T04:14:29.461Z,965.21
2023-05-10T04:24:29.614Z,965.24
2023-05-10T04:34:29.800Z,965.27
2023-05-10T04:44:29.952Z,965.41
2023-05-10T04:54:30.170Z,965.47
2023-05-10T05:04:30.336Z,965.51
2023-05-10T05:14:30.631Z,965.56
2023-05-10T05:24:30.672Z,965.63
2023-05-10T05:34:30.852Z,965.77
2023-05-10T05:44:31.003Z,965.71
2023-05-10T05:54:31.208Z,965.76
2023-05-10T06:04:32.656Z,965.82
2023-05-10T06:14:31.641Z,965.93
2023-05-10T06:24:31.728Z,965.94
2023-05-10T06:34:32.248Z,966.09
2023-05-10T06:44:32.061Z,966.11
2023-05-10T06:54:32.282Z,966.25
2023-05-10T07:04:32.505Z,966.30
2023-05-10T07:14:32.586Z,966.10
2023-05-10T07:24:32.740Z,966.24
2023-05-10T07:34:33.035Z,966.35
2023-05-10T07:44:33.081Z,966.37
2023-05-10T07:54:33.308Z,966.48
2023-05-10T08:04:33.498Z,966.36
2023-05-10T08:14:33.935Z,966.41
2023-05-10T08:24:33.870Z,966.41
2023-05-10T08:34:34.080Z,966.50
2023-05-10T08:44:34.257Z,966.42
2023-05-10T08:54:34.466Z,966.47
2023-05-10T09:04:34.955Z,966.48
2023-05-10T09:14:34.776Z,966.56
2023-05-10T09:24:34.952Z,966.75
2023-05-10T09:34:35.191Z,966.71
2023-05-10T09:44:35.266Z,966.70
2023-05-10T09:54:35.508Z,966.68
2023-05-10T10:04:35.938Z,966.68
2023-05-10T10:14:35.812Z,966.59
2023-05-10T10:24:36.160Z,966.68
2023-05-10T10:34:36.165Z,966.67
2023-05-10T10:44:36.405Z,966.76
2023-05-10T10:54:36.389Z,966.87
2023-05-10T11:04:36.649Z,966.74
2023-05-10T11:14:36.772Z,966.78
2023-05-10T11:24:36.952Z,966.59
2023-05-10T11:34:37.167Z,966.49
2023-05-10T11:44:37.457Z,966.79
2023-05-10T11:54:37.773Z,967.20
2023-05-10T12:04:37.742Z,967.65
2023-05-10T12:14:37.946Z,967.87
2023-05-10T12:24:38.130Z,967.97
2023-05-10T12:34:38.567Z,968.10
2023-05-10T12:44:38.507Z,968.03
2023-05-10T12:54:38.723Z,967.95
2023-05-10T13:04:38.805Z,967.64
2023-05-10T13:14:38.950Z,967.75
2023-05-10T13:24:39.109Z,967.58
2023-05-10T13:34:39.280Z,967.48
2023-05-10T13:44:39.445Z,967.46
2023-05-10T13:54:39.651Z,967.36
2023-05-10T14:04:39.810Z,967.33
2023-05-10T14:14:40.009Z,967.28
2023-05-10T14:24:40.111Z,967.17
2023-05-10T14:34:40.292Z,967.10
2023-05-10T14:44:40.622Z,967.08
2023-05-10T14:54:40.605Z,967.13
2023-05-10T15:04:40.855Z,967.14
2023-05-10T15:14:40.956Z,967.13
2023-05-10T15:24:41.153Z,967.25
2023-05-10T15:34:41.349Z,967.24
2023-05-10T15:44:41.504Z,967.40
2023-05-10T15:54:41.975Z,967.33
2023-05-10T16:04:41.797Z,967.31
2023-05-10T16:14:42.010Z,967.39
2023-05-10T16:24:42.152Z,967.44
2023-05-10T16:34:42.365Z,967.48
2023-05-10T16:44:42.503Z,967.50
2023-05-10T16:54:42.760Z,967.50
2023-05-10T17:04:42.990Z,967.50
2023-05-10T17:14:42.955Z,967.58
2023-05-10T17:24:43.107Z,967.61
2023-05-10T17:34:43.537Z,967.72
2023-05-10T17:44:43.448Z,967.66
2023-05-10T17:54:43.772Z,967.71
2023-05-10T18:04:43.883Z,967.83
2023-05-10T18:14:44.002Z,967.82
2023-05-10T18:24:44.385Z,967.97
2023-05-10T18:34:44.396Z,967.90
2023-05-10T18:44:44.570Z,968.04
2023-05-10T18:54:44.828Z,968.14
2023-05-10T19:04:45.032Z,968.21
2023-05-10T19:14:45.107Z,968.20
2023-05-10T19:24:45.718Z,968.31
2023-05-10T19:34:45.913Z,968.34
2023-05-10T19:44:45.897Z,968.41
2023-05-10T19:54:46.768Z,968.40
2023-05-10T20:04:46.141Z,968.40
2023-05-10T20:14:46.125Z,968.44
2023-05-10T20:24:46.403Z,968.51
2023-05-10T20:34:46.481Z,968.51
2023-05-10T20:44:46.639Z,968.40
2023-05-10T20:54:46.866Z,968.43
2023-05-10T21:04:47.117Z,968.38
2023-05-10T21:14:47.202Z,968.27
2023-05-10T21:24:47.356Z,968.30
2023-05-10T21:34:47.587Z,968.22
2023-05-10T21:44:48.001Z,968.31
2023-05-10T21:54:48.017Z,968.28
2023-05-10T22:04:48.170Z,968.31
2023-05-10T22:14:54.009Z,968.27
2023-05-10T22:24:49.538Z,968.33
2023-05-10T22:34:48.733Z,968.39
2023-05-10T22:44:48.883Z,968.38
2023-05-10T22:54:49.134Z,968.40
2023-05-10T23:04:49.360Z,968.35
2023-05-10T23:14:49.500Z,968.40
2023-05-10T23:24:49.659Z,968.34
2023-05-10T23:34:50.153Z,968.38
2023-05-10T23:44:49.979Z,968.37
2023-05-10T23:54:50.415Z,968.37
